Terminal Aerodrome Forecast
Issued by NWS Upton, NY

Home | Current Version | Previous Version | Text Only | Print | Product List | Glossary On
Versions: 1 2 3 4 5 6 7 8 9 10 11 12 13 14 15 16 17 18 19 20 21 22 23 24 25 26 27 28 29 30
856
FTUS41 KOKX 271935 AAA
TAFBDR
TAF AMD
KBDR 271935Z 2720/2818 12009KT P6SM BKN050
     FM280000 15005KT P6SM BKN035
     FM280700 13004KT P6SM BKN020
     FM281300 14007KT P6SM SCT025 BKN035=

USA.gov is the U.S. government's official web portal to all federal, state and local government web resources and services.